Terminal Aerodrome Forecast
Issued by NWS

Home | Current Version | Previous Version | Text Only | Print | Product List | Glossary Off
Versions: 1 2 3 4 5 6 7 8 9 10 11 12 13

000
FTUS43 KFGF 030520
TAFBJI
TAF
KBJI 030520Z 0306/0406 29007KT P6SM SKC
     FM031600 30014G20KT P6SM FEW050
     FM031800 31013G19KT P6SM SCT250
     FM040000 32007KT P6SM SKC=

USA.gov is the U.S. government's official web portal to all federal, state and local government web resources and services.